Latest Weather Observations for Point Stuart

IDD60901

Issued at 7:51 pm CST Monday 5 December 2016 (issued every 10 minutes, with the page automatically refreshed every 10 minutes)

About weather observations | Map of Darwin area stations | Latest observations for Darwin area | Other Formats
Station Details ID: 014254 Name: POINT STUART Lat: -12.24 Lon: 131.88 Height: 1.0 m
Data from the previous 72 hours. | See also: Recent months at Point Stuart
Date/Time
CST
Temp
°C
App
Temp
°C
Dew
Point
°C
Rel
Hum
%
Delta-T
°C
Wind Press
QNH
hPa
Press
MSL
hPa
Rain since
9am
mm
Dir  Spd
km/h
Gust
km/h
Spd
kts
Gust
kts
05/07:30pm 29.4 32.2 20.8 60 5.7 N 7 9 4 5 1007.1 - 0.0
05/07:00pm 30.3 34.0 22.2 62 5.5 NNW 6 7 3 4 1006.8 - 0.0
05/06:30pm 31.6 34.8 21.7 55 6.7 N 7 13 4 7 1006.6 - 0.0
05/06:00pm 32.2 35.1 21.1 52 7.5 NNW 7 13 4 7 1006.4 1006.4 0.0
05/05:30pm 33.1 36.2 22.2 52 7.4 NNW 9 15 5 8 1006.3 - 0.0
05/05:00pm 33.0 35.5 21.8 51 7.6 NNW 11 17 6 9 1005.9 - 0.0
05/04:30pm 33.1 35.6 22.5 53 7.3 N 13 20 7 11 1005.9 - 0.0
05/04:00pm 33.2 36.0 22.3 52 7.5 N 11 17 6 9 1006.1 - 0.0
05/03:30pm 33.0 35.5 22.4 53 7.3 N 13 22 7 12 1006.2 - 0.0
05/03:00pm 33.1 35.4 22.8 54 7.1 NNW 15 24 8 13 1006.3 1006.3 0.0
05/02:30pm 33.3 35.7 23.0 54 7.1 N 15 20 8 11 1006.8 - 0.0
05/02:00pm 33.0 35.8 23.6 57 6.5 N 15 24 8 13 1007.2 - 0.0
05/01:30pm 33.4 36.6 23.7 56 6.8 N 13 22 7 12 1007.6 - 0.0
05/01:00pm 33.2 35.9 22.9 54 7.1 N 13 22 7 12 1008.0 - 0.0
05/12:30pm 33.0 35.0 23.0 55 6.9 NNE 17 24 9 13 1008.3 - 0.0
05/12:00pm 32.6 33.8 22.1 54 7.2 NE 19 26 10 14 1008.7 1008.7 0.0
05/11:30am 32.6 35.7 24.1 61 5.9 ENE 15 22 8 12 1009.2 - 0.0
05/11:00am 32.5 36.1 24.3 62 5.7 ENE 13 20 7 11 1009.5 - 0.0
05/10:30am 32.0 35.4 23.3 60 6.0 NE 11 17 6 9 1009.7 - 0.0
05/10:00am 32.3 36.6 24.9 65 5.2 ENE 11 17 6 9 1009.9 - 0.0
05/09:30am 31.5 35.3 24.1 65 5.2 ENE 11 15 6 8 1010.0 - 0.0
05/09:00am 31.1 35.7 24.7 68 4.5 ESE 9 15 5 8 1010.0 1010.0 0.0
05/08:30am 30.5 35.0 24.6 70 4.1 ESE 9 15 5 8 1009.9 - 0.0
05/08:00am 29.1 33.4 24.2 75 3.4 SE 9 13 5 7 1009.7 - 0.0
05/07:30am 28.2 33.2 24.8 82 2.4 SSE 7 11 4 6 1009.4 - 0.0
05/07:00am 26.7 32.8 24.4 87 1.6 CALM 0 0 0 0 1009.2 - 0.0
05/06:30am 25.7 30.7 24.8 95 0.6 S 7 9 4 5 1009.0 - 0.0
05/06:00am 25.5 30.1 24.8 96 0.5 S 9 9 5 5 1008.5 1008.5 0.0
05/05:30am 25.7 30.5 24.1 91 1.1 S 6 9 3 5 1008.2 - 0.0
05/05:00am 26.4 31.6 23.5 84 2.0 SSW 2 6 1 3 1007.9 - 0.0
05/04:30am 28.1 32.5 23.5 76 3.2 NE 6 13 3 7 1007.8 - 0.0
05/04:00am 28.5 32.2 23.2 73 3.6 NE 9 15 5 8 1007.5 - 0.0
05/03:30am 28.6 30.9 22.8 71 3.9 NE 15 20 8 11 1007.3 - 0.0
05/03:00am 28.8 31.5 22.8 70 4.1 NE 13 17 7 9 1007.4 1007.4 0.0
05/02:30am 28.7 31.2 22.4 68 4.3 NE 13 17 7 9 1007.5 - 0.0
05/02:00am 28.7 31.3 22.7 70 4.1 NE 13 20 7 11 1007.5 - 0.0
05/01:30am 29.0 31.1 22.5 68 4.4 NE 15 20 8 11 1007.9 - 0.0
05/01:00am 28.9 31.1 22.6 69 4.3 NE 15 20 8 11 1008.3 - 0.0
05/12:30am 29.1 32.7 23.8 73 3.7 NNE 11 19 6 10 1008.7 - 0.0
05/12:00am 29.0 32.3 23.2 71 4.0 NNE 11 17 6 9 1008.8 1008.8 0.0
 
Date/Time
CST
Temp
°C
App
Temp
°C
Dew
Point
°C
Rel
Hum
%
Delta-T
°C
Wind Press
QNH
hPa
Press
MSL
hPa
Rain since
9am
mm
Dir  Spd
km/h
Gust
km/h
Spd
kts
Gust
kts
04/11:30pm 29.3 32.7 23.3 70 4.1 NNE 11 17 6 9 1008.9 - 0.0
04/11:00pm 29.5 32.7 23.0 68 4.4 NNE 11 15 6 8 1008.8 - 0.0
04/10:30pm 29.6 32.6 22.6 66 4.8 NNE 11 17 6 9 1008.8 - 0.0
04/10:00pm 30.0 32.2 21.9 62 5.5 NNE 13 20 7 11 1008.8 - 0.0
04/09:30pm 30.1 32.4 22.0 62 5.5 NNE 13 22 7 12 1008.6 - 0.0
04/09:00pm 30.3 32.4 21.7 60 5.8 NNE 13 20 7 11 1008.3 1008.3 0.0
04/08:30pm 30.5 32.2 21.6 59 6.0 NNE 15 22 8 12 1008.2 - 0.0
04/08:00pm 30.6 32.4 21.9 59 5.9 N 15 30 8 16 1007.9 - 0.0
04/07:30pm 30.6 33.2 22.7 62 5.4 NNE 13 24 7 13 1007.7 - 0.0
04/07:00pm 30.8 33.5 22.9 62 5.4 NNE 13 20 7 11 1007.5 - 0.0
04/06:30pm 31.2 34.7 22.8 61 5.8 N 9 19 5 10 1007.1 - 0.0
04/06:00pm 32.0 35.4 22.7 58 6.4 N 9 15 5 8 1006.6 1006.6 0.0
04/05:30pm 32.5 36.0 22.9 57 6.6 N 9 15 5 8 1006.6 - 0.0
04/05:00pm 33.2 35.8 22.0 51 7.6 N 11 17 6 9 1006.6 - 0.0
04/04:30pm 33.4 36.3 22.5 52 7.5 N 11 17 6 9 1006.7 - 0.0
04/04:00pm 33.7 37.0 22.5 52 7.7 N 9 15 5 8 1006.7 - 0.0
04/03:30pm 33.5 36.8 23.2 54 7.1 N 11 17 6 9 1007.0 - 0.0
04/03:00pm 33.2 36.9 23.2 55 6.9 N 9 17 5 9 1007.1 1007.1 0.0
04/02:30pm 33.8 37.6 24.1 57 6.8 N 11 17 6 9 1007.5 - 0.0
04/02:00pm 33.3 37.0 24.5 60 6.2 NNE 13 19 7 10 1008.0 - 0.0
04/01:30pm 33.4 37.3 24.3 59 6.4 NNE 11 19 6 10 1008.6 - 0.0
04/01:00pm 32.5 35.2 23.4 58 6.3 NNE 15 24 8 13 1008.9 - 0.0
04/12:30pm 32.0 34.0 23.0 59 6.2 NE 17 22 9 12 1009.0 - 0.0
04/12:00pm 32.1 35.3 24.4 63 5.4 ENE 15 24 8 13 1009.3 1009.3 0.0
04/11:30am 32.7 36.2 24.2 61 5.9 ENE 13 17 7 9 1009.8 - 0.0
04/10:30am 31.5 35.2 24.6 67 4.8 E 13 22 7 12 1010.3 - 0.0
04/10:00am 31.3 35.2 25.4 71 4.2 E 15 20 8 11 1010.4 - 0.0
04/09:30am 30.6 34.3 24.5 70 4.3 E 13 20 7 11 1010.5 - 0.0
04/09:00am 30.7 34.9 24.8 71 4.1 ESE 11 17 6 9 1010.5 1010.5 0.0
04/08:30am 30.0 34.3 24.9 74 3.6 ESE 11 13 6 7 1010.6 - 0.0
04/08:00am 28.7 32.9 25.3 82 2.4 SE 13 17 7 9 1010.8 - 0.0
04/07:30am 27.5 32.1 25.3 88 1.5 SE 11 15 6 8 1010.6 - 0.0
04/07:00am 26.6 31.4 25.7 95 0.6 SE 11 13 6 7 1010.3 - 0.0
04/06:30am 25.8 30.7 25.8 100 0.0 SE 11 15 6 8 1009.9 - 0.0
04/06:00am 25.6 30.3 25.6 100 0.0 SE 11 15 6 8 1009.5 1009.5 0.0
04/05:30am 25.5 29.8 25.5 100 0.0 SE 13 15 7 8 1009.2 - 0.0
04/05:00am 25.4 30.0 25.4 100 0.0 SE 11 13 6 7 1008.8 - 0.0
04/04:30am 25.5 30.2 25.5 100 0.0 SE 11 13 6 7 1008.4 - 0.0
04/04:00am 25.6 30.7 25.6 100 0.0 SE 9 11 5 6 1008.3 - 0.0
04/03:30am 25.8 30.7 25.8 100 0.0 SSE 11 13 6 7 1008.3 - 0.0
04/03:00am 25.9 31.6 25.9 100 0.0 SSE 7 9 4 5 1008.2 1008.2 0.0
04/02:30am 26.1 33.3 26.1 100 0.0 CALM 0 0 0 0 1008.2 - 0.0
04/02:00am 26.5 31.8 26.5 100 0.0 S 11 13 6 7 1008.5 - 0.0
04/01:30am 26.7 32.6 26.7 100 0.0 S 9 11 5 6 1008.9 - 0.0
04/01:00am 27.0 34.3 26.3 96 0.5 CALM 0 0 0 0 1008.9 - 0.0
04/12:30am 27.6 34.6 25.8 90 1.3 CALM 0 0 0 0 1009.4 - 0.0
04/12:00am 28.3 34.1 25.7 86 1.8 NNE 6 9 3 5 1009.9 1009.9 0.0
 
Date/Time
CST
Temp
°C
App
Temp
°C
Dew
Point
°C
Rel
Hum
%
Delta-T
°C
Wind Press
QNH
hPa
Press
MSL
hPa
Rain since
9am
mm
Dir  Spd
km/h
Gust
km/h
Spd
kts
Gust
kts
03/11:30pm 28.6 34.1 25.6 84 2.1 N 7 13 4 7 1010.1 - 0.0
03/11:00pm 28.6 34.0 25.4 83 2.3 N 7 13 4 7 1010.2 - 0.0
03/10:30pm 28.4 33.8 25.4 84 2.1 N 7 9 4 5 1010.5 - 0.0
03/10:00pm 28.2 33.5 25.0 83 2.2 N 6 7 3 4 1010.4 - 0.0
03/09:30pm 28.1 33.4 25.3 85 2.0 NNW 7 11 4 6 1010.2 - 0.0
03/09:00pm 28.6 34.6 26.0 86 1.8 NNW 6 7 3 4 1010.0 1010.0 0.0
03/08:30pm 28.9 34.7 26.1 85 2.0 NNW 7 9 4 5 1009.8 - 0.0
03/08:00pm 29.2 34.5 26.4 85 2.0 NNW 11 17 6 9 1009.3 - 0.0
03/07:30pm 29.3 34.6 26.5 85 2.0 NW 11 15 6 8 1009.0 - 0.0
03/07:00pm 29.6 34.9 25.8 80 2.7 NW 9 15 5 8 1008.3 - 0.0
03/06:30pm 30.2 34.6 25.0 73 3.7 NNW 11 17 6 9 1008.0 - 0.0
03/06:00pm 30.7 35.1 25.1 72 4.0 NNW 11 19 6 10 1007.9 1007.9 0.0
03/05:30pm 31.3 36.3 25.4 71 4.2 NNW 9 13 5 7 1007.9 - 0.0
03/05:00pm 31.6 36.3 25.0 68 4.7 NNW 9 13 5 7 1007.6 - 0.0
03/04:30pm 32.3 37.1 25.1 65 5.1 NNW 9 15 5 8 1007.3 - 0.0
03/04:00pm 33.1 37.5 25.1 63 5.7 NNW 11 17 6 9 1007.3 - 0.0
03/03:30pm 33.6 38.3 25.0 60 6.1 N 9 15 5 8 1007.5 - 0.0
03/03:00pm 33.0 37.2 24.7 61 5.9 NNE 11 17 6 9 1007.8 1007.8 0.0
03/02:30pm 33.3 37.5 24.7 60 6.1 N 11 15 6 8 1008.0 - 0.0
03/02:00pm 32.9 36.3 24.1 60 6.2 NNE 13 20 7 11 1008.3 - 0.0
03/01:30pm 32.8 36.0 24.3 61 6.0 NE 15 20 8 11 1008.3 - 0.0
03/01:00pm 33.2 37.6 25.7 64 5.3 NE 13 22 7 12 1009.0 - 0.0
03/12:30pm 32.7 36.8 25.8 67 4.9 ENE 15 22 8 12 1009.4 - 0.0
03/12:00pm 31.8 35.4 25.6 69 4.4 ENE 17 24 9 13 1009.8 1009.8 0.0
03/11:30am 32.3 36.4 26.4 71 4.2 ENE 17 24 9 13 1010.2 - 0.0
03/11:00am 31.4 35.3 26.0 73 3.9 NE 17 24 9 13 1010.4 - 0.0
03/10:30am 32.0 36.9 27.5 77 3.3 NE 17 24 9 13 1010.8 - 0.0
03/10:00am 31.4 35.2 26.4 75 3.6 ENE 19 22 10 12 1010.8 - 0.0
03/09:30am 31.0 35.2 27.1 80 2.8 E 19 22 10 12 1010.6 - 0.0
03/09:00am 30.4 36.2 27.2 83 2.3 ESE 11 15 6 8 1010.6 1010.6 0.0
03/08:30am 29.4 35.0 25.8 81 2.6 S 7 9 4 5 1010.6 - 0.0
03/08:00am 28.4 33.4 25.4 84 2.1 S 9 11 5 6 1010.3 - 0.0
03/07:30am 27.6 32.6 25.4 88 1.5 S 9 13 5 7 1010.0 - 0.0
03/07:00am 27.8 32.9 25.6 88 1.5 W 9 13 5 7 1009.7 - 0.0
03/06:30am 27.8 33.6 26.6 93 0.9 E 9 13 5 7 1009.3 - 0.0
03/06:00am 28.2 33.9 26.4 90 1.3 E 9 13 5 7 1008.7 1008.7 0.0
03/05:30am 28.5 34.2 26.5 89 1.4 NE 9 11 5 6 1008.5 - 0.0
03/05:00am 28.5 34.7 26.3 88 1.6 ENE 6 9 3 5 1008.4 - 0.0
03/04:30am 28.9 34.8 26.7 88 1.6 NE 9 15 5 8 1008.0 - 0.0
03/04:00am 28.9 34.0 25.5 82 2.4 NNE 9 13 5 7 1008.0 - 0.0
03/03:30am 28.7 33.8 25.5 83 2.3 NNE 9 13 5 7 1008.2 - 0.0
03/03:00am 28.7 33.8 25.5 83 2.3 NNE 9 13 5 7 1008.2 1008.2 0.0
03/02:30am 28.7 33.3 25.3 82 2.4 NNE 11 17 6 9 1008.1 - 0.0
03/02:00am 28.7 33.9 25.7 84 2.1 NNE 9 19 5 10 1008.3 - 0.0
03/01:30am 28.6 33.6 25.4 83 2.3 NNE 9 15 5 8 1008.7 - 0.0
03/01:00am 28.8 33.2 25.0 80 2.7 NNE 11 13 6 7 1009.1 - 0.0
03/12:30am 29.1 33.5 25.7 82 2.4 NNE 13 17 7 9 1009.2 - 0.0
03/12:00am 29.3 34.6 26.5 85 2.0 NNE 11 17 6 9 1009.2 1009.2 0.0
 
Date/Time
CST
Temp
°C
App
Temp
°C
Dew
Point
°C
Rel
Hum
%
Delta-T
°C
Wind Press
QNH
hPa
Press
MSL
hPa
Rain since
9am
mm
Dir  Spd
km/h
Gust
km/h
Spd
kts
Gust
kts
02/11:30pm 29.5 34.4 25.9 81 2.6 NNE 11 19 6 10 1009.1 - 0.0
02/11:00pm 29.6 35.5 26.8 85 2.0 NNE 9 13 5 7 1009.5 - 0.0
02/10:30pm 29.4 34.8 26.0 82 2.4 N 9 17 5 9 1009.6 - 0.0
02/10:00pm 29.6 35.6 26.4 83 2.3 N 7 13 4 7 1009.4 - 0.0
02/09:30pm 29.5 35.2 26.5 84 2.1 NNW 9 11 5 6 1009.2 - 0.0
02/09:00pm 30.0 35.1 26.2 80 2.7 NNE 11 17 6 9 1008.9 1008.9 0.0
02/08:30pm 29.6 34.5 25.3 77 3.0 NNE 9 13 5 7 1008.2 - 0.0
02/08:00pm 29.5 34.6 25.5 79 2.8 N 9 13 5 7 1007.9 - 0.0

Latest Capital City Observations: Canberra | Sydney | Melbourne | Brisbane | Adelaide | Perth | Hobart | Darwin

Other Formats:

Comma delimited format used in spreadsheet applications
http://www.bom.gov.au/fwo/IDD60901/IDD60901.94127.axf

JavaScript Object Notation format (JSON) in row-major order
http://www.bom.gov.au/fwo/IDD60901/IDD60901.94127.json